普天間飛行場の過去48時間の天気

普天間飛行場 (Futema)

現在時刻: 2/22 16:34 JST (2/22 07:34 UTC) 以下の時間は現地時間です。

過去48時間のMETAR気象情報
時間 風向 風速(m/s) 視程 気温(℃) 湿度(%) 気圧(hPa) 天気現象
22 15:56 北西 5 10km以上 21.1 76 1024.8
22 14:56 北西 4 10km以上 22.2 66 1024.8
22 13:56 西北西 4 10km以上 22.2 68 1025.2
22 11:56 東南東 3 10km以上 22.2 64 1026.5
22 10:56 3 10km以上 21.7 66 1027.1
22 09:56 東南東 4 10km以上 20.6 70 1027.2
22 08:56 南東 3 10km以上 20 73 1026.7
22 07:56 静穏 0 10km以上 17.8 87 1026.1
22 04:56 南東 3 10km以上 17.8 81 1025.2
22 03:56 南東 3 10km以上 18.3 78 1025.4
22 02:56 2 10km以上 18.3 76 1025.9
22 01:56 南東 3 10km以上 18.3 76 1026.5
22 00:56 南東 4 10km以上 18.3 73 1026.7
21 22:56 東南東 5 10km以上 18.9 68 1027.3
21 19:56 東南東 7 10km以上 18.9 63 1026.9
21 18:56 6 10km以上 19.4 63 1026.8
21 17:56 7 10km以上 19.4 63 1026.7
21 16:56 東南東 7 10km以上 20.6 61 1026.2
21 14:56 8 10km以上 21.7 59 1026.2
21 13:56 東南東 5 10km以上 21.7 55 1026.9
21 12:56 7 10km以上 21.1 59 1027.3
21 11:56 8 10km以上 21.1 57 1028.3
21 10:56 8 10km以上 20.6 54 1028.9
21 09:56 6 10km以上 20 59 1029.1
21 08:56 7 10km以上 18.9 61 1029.3
21 07:56 5 10km以上 17.8 65 1029.1
21 06:56 東北東 5 10km以上 17.2 70 1028.6
21 05:56 東北東 3 10km以上 16.1 72 1028
21 04:56 東北東 3 10km以上 15.6 75 1027.6
21 03:56 東北東 3 10km以上 15.6 75 1027.6
21 02:56 東北東 5 10km以上 16.7 70 1027.3
21 01:56 東北東 5 10km以上 16.7 72 1027.4
21 00:56 東北東 4 10km以上 16.7 75 1027.9
20 23:56 東北東 4 10km以上 16.7 72 1028.3
20 22:56 北東 3 10km以上 14.4 78 1028.6
20 20:56 東北東 4 10km以上 16.7 62 1028.6
20 19:56 北東 3 10km以上 16.1 67 1028.2
20 18:56 北東 3 10km以上 17.2 63 1027.4
20 17:56 東北東 5 10km以上 18.3 56 1026.8
20 16:56 4 10km以上 18.9 56 1026.2
ROTM 220656Z 32010KT 10SM SCT015 OVC075 21/17 A3030 RMK AO2 SLP248 T02110167
ROTM 220556Z 31007KT 10SM OVC070 22/16 A3030 RMK AO2 SLP248 T02220156 10228 20200 56017
ROTM 220456Z 29007KT 10SM OVC080 22/16 A3031 RMK AO2 SLP252 T02220161
ROTM 220256Z 12005KT 10SM OVC090 22/15 A3035 RMK AO2 SLP265 T02220150 58002
ROTM 220156Z 09006KT 10SM BKN080 22/15 A3037 RMK AO2 SLP271 T02170150
ROTM 220056Z 12007KT 10SM SCT090 21/15 A3037 RMK AO2 SLP272 T02060150
ROTM 212356Z 13006KT 10SM CLR 20/15 A3036 RMK AO2 SLP267 T02000150 10200 20167 53014
ROTM 212256Z 00000KT 10SM CLR 18/16 A3034 RMK AO2 SLP261 T01780156
ROTM 211956Z 13006KT 10SM CLR 18/14 A3031 RMK AO2 SLP252 T01780144
ROTM 211856Z 13005KT 10SM BKN085 18/14 A3032 RMK AO2 SLP254 T01830144
ROTM 211756Z 10003KT 10SM CLR 18/14 A3034 RMK AO2 SLP259 T01830139 10189 20183 58010
ROTM 211656Z 13006KT 10SM CLR 18/14 A3035 RMK AO2 SLP265 T01830139
ROTM 211556Z 13008KT 10SM CLR 18/13 A3036 RMK AO2 SLP267 T01830133
ROTM 211356Z 11010KT 10SM CLR 19/13 A3038 RMK AO2 SLP273 T01890128
ROTM 211056Z 12013KT 10SM FEW030 BKN060 19/12 A3036 RMK AO2 SLP269 T01890117
ROTM 210956Z 10011KT 10SM FEW035 BKN060 19/12 A3036 RMK AO2 SLP268 T01940122
ROTM 210856Z 10014KT 10SM CLR 19/12 A3036 RMK AO2 SLP267 T01940122 53004
ROTM 210756Z 11014G20KT 10SM FEW029 FEW035 SCT065 21/13 A3034 RMK AO2 SLP262 T02060128
ROTM 210556Z 10015G20KT 10SM BKN065 22/13 A3034 RMK AO2 SLP262 T02170133 10222 20189 58021
ROTM 210456Z 11009KT 10SM FEW030 SCT042 SCT055 22/12 A3036 RMK AO2 SLP269 T02170122
ROTM 210356Z COR 10014G20KT 9999 FEW040 SCT065 21/13 A3038 RMK SLP273 T02110128
ROTM 210256Z 09016G24KT 10SM FEW041 SCT050 21/12 A3041 RMK AO2 SLP283 T02110122 58009
ROTM 210156Z 10016G21KT 10SM FEW035 21/11 A3042 RMK AO2 SLP289 T02060111
ROTM 210056Z 09012G21KT 10SM CLR 20/12 A3043 RMK AO2 SLP291 T02000117
ROTM 202356Z 08013KT 10SM FEW034 19/11 A3043 RMK AO2 SLP293 T01890111 10194 20144 51013
ROTM 202256Z 08010G18KT 10SM FEW035 FEW045 SCT055 18/11 A3043 RMK AO2 SLP291 T01780111
ROTM 202156Z COR 07009KT 9999 FEW040 17/12 A3041 RMK SLP286 T01720117
ROTM 202056Z 06006KT 10SM FEW030 16/11 A3039 RMK AO2 SLP280 T01610111 51006 $
ROTM 201956Z 06006KT 9999 FEW030 16/11 A3038 RMK SLP276 T01560111
ROTM 201856Z 06006KT 9999 FEW030 16/11 A3038 RMK SLP276 T01560111
ROTM 201756Z 07010KT 10SM FEW030 17/11 A3038 RMK AO2 SLP273 T01670111 10172 20144 56010 $
ROTM 201656Z 06010KT 9999 FEW030 17/12 A3038 RMK SLP274 T01670117
ROTM 201556Z 07008KT 10SM FEW030 17/12 A3039 RMK AO2 SLP279 T01670122 $
ROTM 201456Z 07008KT 10SM FEW040 SCT060 SCT080 17/12 A3041 RMK AO2 SLP283 T01670117 402110122 58002 $
ROTM 201356Z 05005KT 9999 FEW040 SCT080 14/11 A3041 RMK SLP286 T01440106
ROTM 201156Z 07008KT 10SM SCT060 BKN090 17/09 A3041 RMK AO2 SLP286 T01670094 10200 20161 51018 $
ROTM 201056Z 05006KT 10SM BKN060 BKN090 16/10 A3040 RMK AO2 SLP282 T01610100 $
ROTM 200956Z 05006KT 10SM BKN060 BKN090 17/10 A3038 RMK AO2 SLP274 T01720100 $
ROTM 200856Z 07010KT 10SM SCT060 BKN120 18/09 A3036 RMK AO2 SLP268 T01830094 53010 $
ROTM 200756Z 08008KT 10SM BKN055 19/10 A3034 RMK AO2 SLP262 T01890100 $